Terminal Aerodrome Forecast
Issued by NWS Sterling, VA

Current Version | Previous Version | Graphics & Text | Print | Product List | Glossary On
Versions: 1 2 3 4 5 6 7 8 9 10 11 12 13 14 15 16 17 18 19 20 21 22 23 24
000
FTUS41 KLWX 221500 AAB
TAFDCA
TAF AMD
KDCA 221506Z 2215/2312 17005KT P6SM SCT030 BKN050
     FM221600 17008KT P6SM BKN050
     FM230900 20005KT P6SM BKN030=

USA.gov is the U.S. government's official web portal to all federal, state and local government web resources and services.